sensor_id;sensor_type;location;lat;lon;timestamp;temperature;humidity
38848;DHT22;24602;44.780;20.408;2022-09-30T00:02:30;19.30;99.90
38848;DHT22;24602;44.780;20.408;2022-09-30T00:05:03;19.40;99.90
38848;DHT22;24602;44.780;20.408;2022-09-30T00:07:34;19.40;99.90
38848;DHT22;24602;44.780;20.408;2022-09-30T00:10:06;19.40;99.90
38848;DHT22;24602;44.780;20.408;2022-09-30T00:12:40;19.50;99.90
38848;DHT22;24602;44.780;20.408;2022-09-30T00:15:13;19.50;99.90
38848;DHT22;24602;44.780;20.408;2022-09-30T00:17:58;19.50;99.90
38848;DHT22;24602;44.780;20.408;2022-09-30T00:20:28;19.50;99.90
38848;DHT22;24602;44.780;20.408;2022-09-30T00:22:59;19.60;99.90
38848;DHT22;24602;44.780;20.408;2022-09-30T00:25:30;19.60;99.90
38848;DHT22;24602;44.780;20.408;2022-09-30T00:28:03;19.60;99.90
38848;DHT22;24602;44.780;20.408;2022-09-30T00:30:33;19.70;99.90
38848;DHT22;24602;44.780;20.408;2022-09-30T00:33:05;19.70;99.90
38848;DHT22;24602;44.780;20.408;2022-09-30T00:35:40;19.50;99.90
38848;DHT22;24602;44.780;20.408;2022-09-30T00:38:08;19.20;99.90
38848;DHT22;24602;44.780;20.408;2022-09-30T00:40:38;19.10;99.90
38848;DHT22;24602;44.780;20.408;2022-09-30T00:43:14;19.10;99.90
38848;DHT22;24602;44.780;20.408;2022-09-30T00:45:53;19.00;99.90
38848;DHT22;24602;44.780;20.408;2022-09-30T00:48:32;18.90;99.90
38848;DHT22;24602;44.780;20.408;2022-09-30T00:51:11;18.80;99.90
38848;DHT22;24602;44.780;20.408;2022-09-30T00:54:03;18.70;99.90
38848;DHT22;24602;44.780;20.408;2022-09-30T00:57:06;18.70;99.90
38848;DHT22;24602;44.780;20.408;2022-09-30T00:59:42;18.70;99.90
38848;DHT22;24602;44.780;20.408;2022-09-30T01:02:13;18.70;99.90
38848;DHT22;24602;44.780;20.408;2022-09-30T01:04:44;18.80;99.90
38848;DHT22;24602;44.780;20.408;2022-09-30T01:07:20;18.90;99.90
38848;DHT22;24602;44.780;20.408;2022-09-30T01:10:00;18.90;99.90
38848;DHT22;24602;44.780;20.408;2022-09-30T01:12:32;19.00;99.90
38848;DHT22;24602;44.780;20.408;2022-09-30T01:15:05;19.10;99.90
38848;DHT22;24602;44.780;20.408;2022-09-30T01:18:13;19.10;99.90
38848;DHT22;24602;44.780;20.408;2022-09-30T01:21:13;19.10;99.90
38848;DHT22;24602;44.780;20.408;2022-09-30T01:26:44;19.20;99.90
38848;DHT22;24602;44.780;20.408;2022-09-30T01:30:05;19.20;99.90
38848;DHT22;24602;44.780;20.408;2022-09-30T01:35:33;19.10;99.90
38848;DHT22;24602;44.780;20.408;2022-09-30T01:38:25;19.20;99.90
38848;DHT22;24602;44.780;20.408;2022-09-30T01:47:26;19.30;99.90
38848;DHT22;24602;44.780;20.408;2022-09-30T01:50:22;19.30;99.90
38848;DHT22;24602;44.780;20.408;2022-09-30T01:55:49;19.30;99.90
38848;DHT22;24602;44.780;20.408;2022-09-30T01:58:49;19.20;99.90
38848;DHT22;24602;44.780;20.408;2022-09-30T02:01:43;19.10;99.90
38848;DHT22;24602;44.780;20.408;2022-09-30T02:04:37;18.90;99.90
38848;DHT22;24602;44.780;20.408;2022-09-30T02:07:14;18.90;99.90
38848;DHT22;24602;44.780;20.408;2022-09-30T02:10:00;18.90;99.90
38848;DHT22;24602;44.780;20.408;2022-09-30T02:12:37;18.90;99.90
38848;DHT22;24602;44.780;20.408;2022-09-30T02:15:14;18.90;99.90
38848;DHT22;24602;44.780;20.408;2022-09-30T02:17:53;18.90;99.90
38848;DHT22;24602;44.780;20.408;2022-09-30T02:20:33;18.90;99.90
38848;DHT22;24602;44.780;20.408;2022-09-30T02:23:27;18.90;99.90
38848;DHT22;24602;44.780;20.408;2022-09-30T02:26:05;18.90;99.90
38848;DHT22;24602;44.780;20.408;2022-09-30T02:28:42;19.00;99.90
38848;DHT22;24602;44.780;20.408;2022-09-30T02:31:15;18.90;99.90
38848;DHT22;24602;44.780;20.408;2022-09-30T02:33:55;18.90;99.90
38848;DHT22;24602;44.780;20.408;2022-09-30T02:39:09;18.70;99.90
38848;DHT22;24602;44.780;20.408;2022-09-30T02:41:44;18.50;99.90
38848;DHT22;24602;44.780;20.408;2022-09-30T02:44:15;18.50;99.90
38848;DHT22;24602;44.780;20.408;2022-09-30T02:49:43;18.50;99.90
38848;DHT22;24602;44.780;20.408;2022-09-30T02:52:47;18.60;99.90
38848;DHT22;24602;44.780;20.408;2022-09-30T02:55:30;18.60;99.90
38848;DHT22;24602;44.780;20.408;2022-09-30T02:58:15;18.50;99.90
38848;DHT22;24602;44.780;20.408;2022-09-30T03:00:48;18.40;99.90
38848;DHT22;24602;44.780;20.408;2022-09-30T03:03:27;18.30;99.90
38848;DHT22;24602;44.780;20.408;2022-09-30T03:05:57;18.30;99.90
38848;DHT22;24602;44.780;20.408;2022-09-30T03:08:36;18.10;99.90
38848;DHT22;24602;44.780;20.408;2022-09-30T03:11:16;18.10;99.90
38848;DHT22;24602;44.780;20.408;2022-09-30T03:23:01;18.30;99.90
38848;DHT22;24602;44.780;20.408;2022-09-30T03:29:00;18.50;99.90
38848;DHT22;24602;44.780;20.408;2022-09-30T03:35:10;18.60;99.90
38848;DHT22;24602;44.780;20.408;2022-09-30T03:43:56;18.60;99.90
38848;DHT22;24602;44.780;20.408;2022-09-30T03:46:58;18.70;99.90
38848;DHT22;24602;44.780;20.408;2022-09-30T03:49:34;18.70;99.90
38848;DHT22;24602;44.780;20.408;2022-09-30T03:52:09;18.80;99.90
38848;DHT22;24602;44.780;20.408;2022-09-30T03:55:05;18.80;99.90
38848;DHT22;24602;44.780;20.408;2022-09-30T03:57:41;18.80;99.90
38848;DHT22;24602;44.780;20.408;2022-09-30T04:00:14;18.80;99.90
38848;DHT22;24602;44.780;20.408;2022-09-30T04:02:45;18.90;99.90
38848;DHT22;24602;44.780;20.408;2022-09-30T04:05:17;18.90;99.90
38848;DHT22;24602;44.780;20.408;2022-09-30T04:07:46;18.90;99.90
38848;DHT22;24602;44.780;20.408;2022-09-30T04:10:16;18.90;99.90
38848;DHT22;24602;44.780;20.408;2022-09-30T04:12:45;18.80;99.90
38848;DHT22;24602;44.780;20.408;2022-09-30T04:15:18;18.80;99.90
38848;DHT22;24602;44.780;20.408;2022-09-30T04:17:49;18.80;99.90
38848;DHT22;24602;44.780;20.408;2022-09-30T04:20:25;18.70;99.90
38848;DHT22;24602;44.780;20.408;2022-09-30T04:22:58;18.80;99.90
38848;DHT22;24602;44.780;20.408;2022-09-30T04:25:28;18.70;99.90
38848;DHT22;24602;44.780;20.408;2022-09-30T04:27:59;18.70;99.90
38848;DHT22;24602;44.780;20.408;2022-09-30T04:30:36;18.70;99.90
38848;DHT22;24602;44.780;20.408;2022-09-30T04:33:08;18.80;99.90
38848;DHT22;24602;44.780;20.408;2022-09-30T04:35:41;18.80;99.90
38848;DHT22;24602;44.780;20.408;2022-09-30T04:38:12;18.80;99.90
38848;DHT22;24602;44.780;20.408;2022-09-30T04:40:40;18.80;99.90
38848;DHT22;24602;44.780;20.408;2022-09-30T04:43:13;18.80;99.90
38848;DHT22;24602;44.780;20.408;2022-09-30T04:45:48;18.80;99.90
38848;DHT22;24602;44.780;20.408;2022-09-30T04:48:24;18.80;99.90
38848;DHT22;24602;44.780;20.408;2022-09-30T04:50:58;18.90;99.90
38848;DHT22;24602;44.780;20.408;2022-09-30T04:53:34;18.90;99.90
38848;DHT22;24602;44.780;20.408;2022-09-30T04:56:08;18.90;99.90
38848;DHT22;24602;44.780;20.408;2022-09-30T04:58:39;18.80;99.90
38848;DHT22;24602;44.780;20.408;2022-09-30T05:01:14;18.70;99.90
38848;DHT22;24602;44.780;20.408;2022-09-30T05:03:46;18.70;99.90
38848;DHT22;24602;44.780;20.408;2022-09-30T05:06:17;18.60;99.90
38848;DHT22;24602;44.780;20.408;2022-09-30T05:08:59;18.60;99.90
38848;DHT22;24602;44.780;20.408;2022-09-30T05:11:31;18.60;99.90
38848;DHT22;24602;44.780;20.408;2022-09-30T05:14:06;18.60;99.90
38848;DHT22;24602;44.780;20.408;2022-09-30T05:16:40;18.60;99.90
38848;DHT22;24602;44.780;20.408;2022-09-30T05:19:08;18.60;99.90
38848;DHT22;24602;44.780;20.408;2022-09-30T05:21:40;18.60;99.90
38848;DHT22;24602;44.780;20.408;2022-09-30T05:24:15;18.60;99.90
38848;DHT22;24602;44.780;20.408;2022-09-30T05:26:53;18.70;99.90
38848;DHT22;24602;44.780;20.408;2022-09-30T05:29:22;18.70;99.90
38848;DHT22;24602;44.780;20.408;2022-09-30T05:31:52;18.70;99.90
38848;DHT22;24602;44.780;20.408;2022-09-30T05:34:24;18.70;99.90
38848;DHT22;24602;44.780;20.408;2022-09-30T05:37:00;18.80;99.90
38848;DHT22;24602;44.780;20.408;2022-09-30T05:39:29;18.70;99.90
38848;DHT22;24602;44.780;20.408;2022-09-30T05:41:59;18.80;99.90
38848;DHT22;24602;44.780;20.408;2022-09-30T05:44:29;18.80;99.90
38848;DHT22;24602;44.780;20.408;2022-09-30T05:47:00;18.80;99.90
38848;DHT22;24602;44.780;20.408;2022-09-30T05:49:36;18.70;99.90
38848;DHT22;24602;44.780;20.408;2022-09-30T05:52:06;18.70;99.90
38848;DHT22;24602;44.780;20.408;2022-09-30T05:54:40;18.60;99.90
38848;DHT22;24602;44.780;20.408;2022-09-30T05:57:13;18.60;99.90
38848;DHT22;24602;44.780;20.408;2022-09-30T05:59:42;18.60;99.90
38848;DHT22;24602;44.780;20.408;2022-09-30T06:02:13;18.60;99.90
38848;DHT22;24602;44.780;20.408;2022-09-30T06:04:42;18.60;99.90
38848;DHT22;24602;44.780;20.408;2022-09-30T06:07:12;18.70;99.90
38848;DHT22;24602;44.780;20.408;2022-09-30T06:09:43;18.60;99.90
38848;DHT22;24602;44.780;20.408;2022-09-30T06:12:26;18.50;99.90
38848;DHT22;24602;44.780;20.408;2022-09-30T06:14:57;18.50;99.90
38848;DHT22;24602;44.780;20.408;2022-09-30T06:17:25;18.60;99.90
38848;DHT22;24602;44.780;20.408;2022-09-30T06:19:58;18.70;99.90
38848;DHT22;24602;44.780;20.408;2022-09-30T06:22:35;18.70;99.90
38848;DHT22;24602;44.780;20.408;2022-09-30T06:25:09;18.70;99.90
38848;DHT22;24602;44.780;20.408;2022-09-30T06:27:43;18.70;99.90
38848;DHT22;24602;44.780;20.408;2022-09-30T06:30:17;18.80;99.90
38848;DHT22;24602;44.780;20.408;2022-09-30T06:32:55;18.90;99.90
38848;DHT22;24602;44.780;20.408;2022-09-30T06:35:34;19.00;99.90
38848;DHT22;24602;44.780;20.408;2022-09-30T06:38:05;19.00;99.90
38848;DHT22;24602;44.780;20.408;2022-09-30T06:40:37;19.00;99.90
38848;DHT22;24602;44.780;20.408;2022-09-30T06:43:13;19.00;99.90
38848;DHT22;24602;44.780;20.408;2022-09-30T06:45:47;19.10;99.90
38848;DHT22;24602;44.780;20.408;2022-09-30T06:48:29;19.20;99.90
38848;DHT22;24602;44.780;20.408;2022-09-30T06:51:07;19.20;99.90
38848;DHT22;24602;44.780;20.408;2022-09-30T06:53:48;19.20;99.90
38848;DHT22;24602;44.780;20.408;2022-09-30T06:56:21;19.20;99.90
38848;DHT22;24602;44.780;20.408;2022-09-30T06:58:54;19.30;99.90
38848;DHT22;24602;44.780;20.408;2022-09-30T07:01:27;19.40;99.90
38848;DHT22;24602;44.780;20.408;2022-09-30T07:04:00;19.40;99.90
38848;DHT22;24602;44.780;20.408;2022-09-30T07:06:37;19.50;99.90
38848;DHT22;24602;44.780;20.408;2022-09-30T07:09:08;19.50;99.90
38848;DHT22;24602;44.780;20.408;2022-09-30T07:11:47;19.60;99.90
38848;DHT22;24602;44.780;20.408;2022-09-30T07:14:17;19.60;99.90
38848;DHT22;24602;44.780;20.408;2022-09-30T07:16:47;19.70;99.90
38848;DHT22;24602;44.780;20.408;2022-09-30T07:19:23;19.70;99.90
38848;DHT22;24602;44.780;20.408;2022-09-30T07:21:58;19.70;99.90
38848;DHT22;24602;44.780;20.408;2022-09-30T07:24:49;19.90;99.90
38848;DHT22;24602;44.780;20.408;2022-09-30T07:27:25;19.90;99.90
38848;DHT22;24602;44.780;20.408;2022-09-30T07:29:57;19.90;99.90
38848;DHT22;24602;44.780;20.408;2022-09-30T07:32:41;19.90;99.90
38848;DHT22;24602;44.780;20.408;2022-09-30T07:35:14;19.90;99.90
38848;DHT22;24602;44.780;20.408;2022-09-30T07:37:48;19.90;99.90
38848;DHT22;24602;44.780;20.408;2022-09-30T07:40:17;19.90;99.90
38848;DHT22;24602;44.780;20.408;2022-09-30T07:42:54;19.80;99.90
38848;DHT22;24602;44.780;20.408;2022-09-30T07:45:34;19.90;99.90
38848;DHT22;24602;44.780;20.408;2022-09-30T07:48:11;19.90;99.90
38848;DHT22;24602;44.780;20.408;2022-09-30T07:51:03;20.00;99.90
38848;DHT22;24602;44.780;20.408;2022-09-30T07:53:37;20.00;99.90
38848;DHT22;24602;44.780;20.408;2022-09-30T07:56:07;20.00;99.90
38848;DHT22;24602;44.780;20.408;2022-09-30T07:58:38;20.10;99.90
38848;DHT22;24602;44.780;20.408;2022-09-30T08:01:13;20.10;99.90
38848;DHT22;24602;44.780;20.408;2022-09-30T08:03:43;20.20;99.90
38848;DHT22;24602;44.780;20.408;2022-09-30T08:06:16;20.20;99.90
38848;DHT22;24602;44.780;20.408;2022-09-30T08:08:46;20.30;99.90
38848;DHT22;24602;44.780;20.408;2022-09-30T08:11:16;20.30;99.90
38848;DHT22;24602;44.780;20.408;2022-09-30T08:13:54;20.30;99.90
38848;DHT22;24602;44.780;20.408;2022-09-30T08:16:25;20.30;99.90
38848;DHT22;24602;44.780;20.408;2022-09-30T08:18:59;20.20;99.90
38848;DHT22;24602;44.780;20.408;2022-09-30T08:21:45;20.20;99.90
38848;DHT22;24602;44.780;20.408;2022-09-30T08:24:15;20.20;99.90
38848;DHT22;24602;44.780;20.408;2022-09-30T08:26:47;20.30;99.90
38848;DHT22;24602;44.780;20.408;2022-09-30T08:29:22;20.40;99.90
38848;DHT22;24602;44.780;20.408;2022-09-30T08:32:15;20.40;99.90
38848;DHT22;24602;44.780;20.408;2022-09-30T08:34:48;20.40;99.90
38848;DHT22;24602;44.780;20.408;2022-09-30T08:37:18;20.50;99.90
38848;DHT22;24602;44.780;20.408;2022-09-30T08:39:49;20.60;99.90
38848;DHT22;24602;44.780;20.408;2022-09-30T08:51:10;20.80;99.90
38848;DHT22;24602;44.780;20.408;2022-09-30T08:53:45;20.80;99.90
38848;DHT22;24602;44.780;20.408;2022-09-30T08:56:26;20.90;99.90
38848;DHT22;24602;44.780;20.408;2022-09-30T09:02:42;21.10;99.90
38848;DHT22;24602;44.780;20.408;2022-09-30T09:04:59;21.30;99.90
38848;DHT22;24602;44.780;20.408;2022-09-30T09:08:00;21.30;99.90
38848;DHT22;24602;44.780;20.408;2022-09-30T09:10:48;21.20;99.90
38848;DHT22;24602;44.780;20.408;2022-09-30T09:13:40;21.20;99.90
38848;DHT22;24602;44.780;20.408;2022-09-30T09:16:41;21.30;99.90
38848;DHT22;24602;44.780;20.408;2022-09-30T09:19:22;21.30;99.90
38848;DHT22;24602;44.780;20.408;2022-09-30T09:21:59;21.30;99.90
38848;DHT22;24602;44.780;20.408;2022-09-30T09:24:46;21.30;99.90
38848;DHT22;24602;44.780;20.408;2022-09-30T09:27:44;21.30;99.90
38848;DHT22;24602;44.780;20.408;2022-09-30T09:30:24;21.30;99.90
38848;DHT22;24602;44.780;20.408;2022-09-30T09:33:09;21.30;99.90
38848;DHT22;24602;44.780;20.408;2022-09-30T09:47:53;21.10;99.90
38848;DHT22;24602;44.780;20.408;2022-09-30T09:55:57;21.20;99.90
38848;DHT22;24602;44.780;20.408;2022-09-30T09:58:28;21.20;99.90
38848;DHT22;24602;44.780;20.408;2022-09-30T10:01:09;21.30;99.90
38848;DHT22;24602;44.780;20.408;2022-09-30T10:04:29;21.30;99.90
38848;DHT22;24602;44.780;20.408;2022-09-30T10:07:13;21.40;99.90
38848;DHT22;24602;44.780;20.408;2022-09-30T10:09:44;21.40;99.90
38848;DHT22;24602;44.780;20.408;2022-09-30T10:12:25;21.50;99.90
38848;DHT22;24602;44.780;20.408;2022-09-30T10:15:14;21.50;99.90
38848;DHT22;24602;44.780;20.408;2022-09-30T10:17:58;21.50;99.90
38848;DHT22;24602;44.780;20.408;2022-09-30T10:20:32;21.70;99.90
38848;DHT22;24602;44.780;20.408;2022-09-30T10:23:19;21.90;99.90
38848;DHT22;24602;44.780;20.408;2022-09-30T10:28:46;22.10;99.90
38848;DHT22;24602;44.780;20.408;2022-09-30T10:31:39;22.20;99.90
38848;DHT22;24602;44.780;20.408;2022-09-30T10:34:36;22.30;99.90
38848;DHT22;24602;44.780;20.408;2022-09-30T10:37:12;22.30;99.90
38848;DHT22;24602;44.780;20.408;2022-09-30T10:39:54;22.40;99.90
38848;DHT22;24602;44.780;20.408;2022-09-30T10:42:37;22.60;99.90
38848;DHT22;24602;44.780;20.408;2022-09-30T10:45:20;23.00;99.90
38848;DHT22;24602;44.780;20.408;2022-09-30T10:48:07;23.20;99.90
38848;DHT22;24602;44.780;20.408;2022-09-30T10:50:54;23.30;99.90
38848;DHT22;24602;44.780;20.408;2022-09-30T10:53:43;23.50;99.90
38848;DHT22;24602;44.780;20.408;2022-09-30T10:56:11;23.40;99.90
38848;DHT22;24602;44.780;20.408;2022-09-30T10:58:50;23.50;99.90
38848;DHT22;24602;44.780;20.408;2022-09-30T11:01:37;23.50;99.90
38848;DHT22;24602;44.780;20.408;2022-09-30T11:04:24;23.60;99.90
38848;DHT22;24602;44.780;20.408;2022-09-30T11:10:06;23.70;99.90
38848;DHT22;24602;44.780;20.408;2022-09-30T11:13:00;23.80;99.90
38848;DHT22;24602;44.780;20.408;2022-09-30T11:15:55;23.80;99.40
38848;DHT22;24602;44.780;20.408;2022-09-30T11:18:52;23.90;99.00
38848;DHT22;24602;44.780;20.408;2022-09-30T11:21:55;24.00;99.30
38848;DHT22;24602;44.780;20.408;2022-09-30T11:24:47;24.00;99.90
38848;DHT22;24602;44.780;20.408;2022-09-30T11:30:24;24.30;98.00
38848;DHT22;24602;44.780;20.408;2022-09-30T11:38:59;24.90;97.00
38848;DHT22;24602;44.780;20.408;2022-09-30T11:41:35;24.90;96.70
38848;DHT22;24602;44.780;20.408;2022-09-30T11:44:32;24.90;96.60
38848;DHT22;24602;44.780;20.408;2022-09-30T12:02:34;25.60;94.50
38848;DHT22;24602;44.780;20.408;2022-09-30T12:05:16;25.90;93.50
38848;DHT22;24602;44.780;20.408;2022-09-30T12:08:10;25.80;92.40
38848;DHT22;24602;44.780;20.408;2022-09-30T12:11:09;25.80;92.30
38848;DHT22;24602;44.780;20.408;2022-09-30T12:13:49;25.60;91.60
38848;DHT22;24602;44.780;20.408;2022-09-30T12:16:24;25.50;92.90
38848;DHT22;24602;44.780;20.408;2022-09-30T12:19:25;25.50;93.90
38848;DHT22;24602;44.780;20.408;2022-09-30T12:22:05;25.60;93.10
38848;DHT22;24602;44.780;20.408;2022-09-30T12:24:40;25.60;93.50
38848;DHT22;24602;44.780;20.408;2022-09-30T12:27:34;25.50;93.20
38848;DHT22;24602;44.780;20.408;2022-09-30T12:30:15;25.50;92.80
38848;DHT22;24602;44.780;20.408;2022-09-30T12:47:48;27.20;90.80
38848;DHT22;24602;44.780;20.408;2022-09-30T12:50:27;27.50;90.90
38848;DHT22;24602;44.780;20.408;2022-09-30T12:53:19;27.90;90.50
38848;DHT22;24602;44.780;20.408;2022-09-30T12:56:11;29.20;88.00
38848;DHT22;24602;44.780;20.408;2022-09-30T12:58:49;30.70;80.10
38848;DHT22;24602;44.780;20.408;2022-09-30T13:01:24;30.90;76.20
38848;DHT22;24602;44.780;20.408;2022-09-30T13:09:35;29.80;76.70
38848;DHT22;24602;44.780;20.408;2022-09-30T13:12:16;29.10;78.00
38848;DHT22;24602;44.780;20.408;2022-09-30T13:23:53;28.30;81.00
38848;DHT22;24602;44.780;20.408;2022-09-30T13:26:38;28.00;81.60
38848;DHT22;24602;44.780;20.408;2022-09-30T13:32:02;27.10;84.40
38848;DHT22;24602;44.780;20.408;2022-09-30T13:34:52;27.20;85.00
38848;DHT22;24602;44.780;20.408;2022-09-30T13:37:35;27.20;83.90
38848;DHT22;24602;44.780;20.408;2022-09-30T13:40:14;27.20;84.30
38848;DHT22;24602;44.780;20.408;2022-09-30T13:42:52;27.00;85.10
38848;DHT22;24602;44.780;20.408;2022-09-30T13:45:28;26.80;85.80
38848;DHT22;24602;44.780;20.408;2022-09-30T13:48:17;26.70;85.10
38848;DHT22;24602;44.780;20.408;2022-09-30T13:50:57;26.80;83.90
38848;DHT22;24602;44.780;20.408;2022-09-30T13:53:43;28.20;81.60
38848;DHT22;24602;44.780;20.408;2022-09-30T13:56:21;29.40;77.60
38848;DHT22;24602;44.780;20.408;2022-09-30T13:59:18;29.90;74.60
38848;DHT22;24602;44.780;20.408;2022-09-30T14:05:15;29.70;72.80
38848;DHT22;24602;44.780;20.408;2022-09-30T14:08:09;31.10;72.00
38848;DHT22;24602;44.780;20.408;2022-09-30T14:11:37;33.30;66.00
38848;DHT22;24602;44.780;20.408;2022-09-30T14:23:27;29.60;69.60
38848;DHT22;24602;44.780;20.408;2022-09-30T14:26:27;28.50;75.00
38848;DHT22;24602;44.780;20.408;2022-09-30T14:32:15;27.00;82.40
38848;DHT22;24602;44.780;20.408;2022-09-30T14:34:49;26.40;84.80
38848;DHT22;24602;44.780;20.408;2022-09-30T14:37:30;26.10;87.70
38848;DHT22;24602;44.780;20.408;2022-09-30T14:40:09;25.80;90.00
38848;DHT22;24602;44.780;20.408;2022-09-30T14:42:40;25.70;91.30
38848;DHT22;24602;44.780;20.408;2022-09-30T14:45:19;25.60;91.60
38848;DHT22;24602;44.780;20.408;2022-09-30T14:48:04;25.50;91.90
38848;DHT22;24602;44.780;20.408;2022-09-30T14:50:55;25.40;92.70
38848;DHT22;24602;44.780;20.408;2022-09-30T14:53:34;25.30;93.30
38848;DHT22;24602;44.780;20.408;2022-09-30T14:56:20;25.30;93.40
38848;DHT22;24602;44.780;20.408;2022-09-30T14:58:50;25.20;93.40
38848;DHT22;24602;44.780;20.408;2022-09-30T15:01:29;25.10;93.60
38848;DHT22;24602;44.780;20.408;2022-09-30T15:04:06;25.00;94.00
38848;DHT22;24602;44.780;20.408;2022-09-30T15:06:49;24.90;94.20
38848;DHT22;24602;44.780;20.408;2022-09-30T15:09:42;24.90;94.60
38848;DHT22;24602;44.780;20.408;2022-09-30T15:12:19;24.80;94.80
38848;DHT22;24602;44.780;20.408;2022-09-30T15:14:55;24.70;94.40
38848;DHT22;24602;44.780;20.408;2022-09-30T15:17:29;24.70;94.40
38848;DHT22;24602;44.780;20.408;2022-09-30T15:20:31;24.60;94.50
38848;DHT22;24602;44.780;20.408;2022-09-30T15:23:08;24.60;94.50
38848;DHT22;24602;44.780;20.408;2022-09-30T15:25:48;24.60;94.50
38848;DHT22;24602;44.780;20.408;2022-09-30T15:28:16;24.60;94.50
38848;DHT22;24602;44.780;20.408;2022-09-30T15:30:50;24.60;94.80
38848;DHT22;24602;44.780;20.408;2022-09-30T15:33:22;24.60;95.00
38848;DHT22;24602;44.780;20.408;2022-09-30T15:36:15;24.50;95.40
38848;DHT22;24602;44.780;20.408;2022-09-30T15:38:48;24.40;96.10
38848;DHT22;24602;44.780;20.408;2022-09-30T15:41:20;24.30;96.90
38848;DHT22;24602;44.780;20.408;2022-09-30T15:43:51;24.30;97.50
38848;DHT22;24602;44.780;20.408;2022-09-30T15:46:30;24.30;98.00
38848;DHT22;24602;44.780;20.408;2022-09-30T15:49:33;24.20;98.30
38848;DHT22;24602;44.780;20.408;2022-09-30T15:52:28;24.10;98.80
38848;DHT22;24602;44.780;20.408;2022-09-30T15:54:58;24.00;99.20
38848;DHT22;24602;44.780;20.408;2022-09-30T15:57:47;24.00;99.30
38848;DHT22;24602;44.780;20.408;2022-09-30T16:00:35;23.90;99.50
38848;DHT22;24602;44.780;20.408;2022-09-30T16:06:04;23.70;99.90
38848;DHT22;24602;44.780;20.408;2022-09-30T16:08:50;23.70;99.90
38848;DHT22;24602;44.780;20.408;2022-09-30T16:11:37;23.70;99.90
38848;DHT22;24602;44.780;20.408;2022-09-30T16:14:22;23.60;99.90
38848;DHT22;24602;44.780;20.408;2022-09-30T16:17:02;23.50;99.90
38848;DHT22;24602;44.780;20.408;2022-09-30T16:20:09;23.50;99.90
38848;DHT22;24602;44.780;20.408;2022-09-30T16:22:52;23.50;99.90
38848;DHT22;24602;44.780;20.408;2022-09-30T16:25:28;23.40;99.90
38848;DHT22;24602;44.780;20.408;2022-09-30T16:28:13;23.40;99.90
38848;DHT22;24602;44.780;20.408;2022-09-30T16:30:48;23.30;99.90
38848;DHT22;24602;44.780;20.408;2022-09-30T16:33:19;23.30;99.90
38848;DHT22;24602;44.780;20.408;2022-09-30T16:35:51;23.20;99.90
38848;DHT22;24602;44.780;20.408;2022-09-30T16:38:26;23.20;99.90
38848;DHT22;24602;44.780;20.408;2022-09-30T16:41:12;23.20;99.90
38848;DHT22;24602;44.780;20.408;2022-09-30T16:43:44;23.10;99.90
38848;DHT22;24602;44.780;20.408;2022-09-30T16:46:17;23.10;99.90
38848;DHT22;24602;44.780;20.408;2022-09-30T16:48:46;23.10;99.90
38848;DHT22;24602;44.780;20.408;2022-09-30T16:51:15;23.10;99.90
38848;DHT22;24602;44.780;20.408;2022-09-30T16:53:46;23.10;99.90
38848;DHT22;24602;44.780;20.408;2022-09-30T16:56:23;23.10;99.90
38848;DHT22;24602;44.780;20.408;2022-09-30T16:59:00;23.00;99.90
38848;DHT22;24602;44.780;20.408;2022-09-30T17:01:31;23.10;99.90
38848;DHT22;24602;44.780;20.408;2022-09-30T17:04:07;23.10;99.90
38848;DHT22;24602;44.780;20.408;2022-09-30T17:06:46;23.10;99.90
38848;DHT22;24602;44.780;20.408;2022-09-30T17:09:18;23.10;99.90
38848;DHT22;24602;44.780;20.408;2022-09-30T17:11:49;23.10;99.90
38848;DHT22;24602;44.780;20.408;2022-09-30T17:14:21;23.10;99.90
38848;DHT22;24602;44.780;20.408;2022-09-30T17:16:56;23.10;99.90
38848;DHT22;24602;44.780;20.408;2022-09-30T17:19:45;23.00;99.90
38848;DHT22;24602;44.780;20.408;2022-09-30T17:22:18;23.00;99.90
38848;DHT22;24602;44.780;20.408;2022-09-30T17:24:51;23.00;99.90
38848;DHT22;24602;44.780;20.408;2022-09-30T17:27:40;23.00;99.90
38848;DHT22;24602;44.780;20.408;2022-09-30T17:30:14;23.00;99.90
38848;DHT22;24602;44.780;20.408;2022-09-30T17:32:45;23.00;99.90
38848;DHT22;24602;44.780;20.408;2022-09-30T17:35:15;23.00;99.90
38848;DHT22;24602;44.780;20.408;2022-09-30T17:37:49;23.00;99.90
38848;DHT22;24602;44.780;20.408;2022-09-30T17:40:19;23.00;99.90
38848;DHT22;24602;44.780;20.408;2022-09-30T17:43:11;23.00;99.90
38848;DHT22;24602;44.780;20.408;2022-09-30T17:45:50;23.00;99.90
38848;DHT22;24602;44.780;20.408;2022-09-30T17:48:23;23.00;99.90
38848;DHT22;24602;44.780;20.408;2022-09-30T17:50:52;23.00;99.90
38848;DHT22;24602;44.780;20.408;2022-09-30T17:53:27;23.00;99.90
38848;DHT22;24602;44.780;20.408;2022-09-30T17:56:10;22.80;99.90
38848;DHT22;24602;44.780;20.408;2022-09-30T17:58:45;22.80;99.90
38848;DHT22;24602;44.780;20.408;2022-09-30T18:01:17;22.80;99.90
38848;DHT22;24602;44.780;20.408;2022-09-30T18:03:48;22.80;99.90
38848;DHT22;24602;44.780;20.408;2022-09-30T18:06:25;22.80;99.90
38848;DHT22;24602;44.780;20.408;2022-09-30T18:09:00;22.80;99.90
38848;DHT22;24602;44.780;20.408;2022-09-30T18:11:31;22.70;99.90
38848;DHT22;24602;44.780;20.408;2022-09-30T18:14:03;22.70;99.90
38848;DHT22;24602;44.780;20.408;2022-09-30T18:16:33;22.70;99.90
38848;DHT22;24602;44.780;20.408;2022-09-30T18:19:06;22.70;99.90
38848;DHT22;24602;44.780;20.408;2022-09-30T18:21:35;22.80;99.90
38848;DHT22;24602;44.780;20.408;2022-09-30T18:24:09;22.70;99.90
38848;DHT22;24602;44.780;20.408;2022-09-30T18:26:43;22.60;99.90
38848;DHT22;24602;44.780;20.408;2022-09-30T18:29:11;22.60;99.90
38848;DHT22;24602;44.780;20.408;2022-09-30T18:31:48;22.60;99.90
38848;DHT22;24602;44.780;20.408;2022-09-30T18:34:22;22.50;99.90
38848;DHT22;24602;44.780;20.408;2022-09-30T18:36:52;22.40;99.90
38848;DHT22;24602;44.780;20.408;2022-09-30T18:39:22;22.40;99.90
38848;DHT22;24602;44.780;20.408;2022-09-30T18:41:54;22.40;99.90
38848;DHT22;24602;44.780;20.408;2022-09-30T18:44:26;22.30;99.90
38848;DHT22;24602;44.780;20.408;2022-09-30T18:46:58;22.30;99.90
38848;DHT22;24602;44.780;20.408;2022-09-30T18:49:34;22.30;99.90
38848;DHT22;24602;44.780;20.408;2022-09-30T18:52:06;22.20;99.90
38848;DHT22;24602;44.780;20.408;2022-09-30T18:54:41;22.20;99.90
38848;DHT22;24602;44.780;20.408;2022-09-30T18:57:13;22.20;99.90
38848;DHT22;24602;44.780;20.408;2022-09-30T18:59:42;22.20;99.90